Time,TemperatureF,DewpointF,PressureIn,WindDirection,WindDirectionDegrees,WindSpeedMPH,WindSpeedGustMPH,Humidity,HourlyPrecipIn,Conditions,Clouds,dailyrainin,SoftwareType,DateUTC
2013-12-28 00:00:00,36.3,8.5,30.00,North,0,0.0,0.0,31,0.00,CLR,OVC,0.00,WeatherDisplay:10.37,2013-12-28 06:00:00,
2013-12-28 00:05:00,36.3,8.5,30.00,North,0,0.0,0.0,31,0.00,CLR,OVC,0.00,WeatherDisplay:10.37,2013-12-28 06:05:00,
2013-12-28 00:10:00,36.3,8.5,30.00,North,0,0.0,0.0,31,0.00,CLR,OVC,0.00,WeatherDisplay:10.37,2013-12-28 06:10:00,
2013-12-28 00:15:00,36.3,8.5,30.00,North,0,0.0,0.0,31,0.00,CLR,OVC,0.00,WeatherDisplay:10.37,2013-12-28 06:15:00,
2013-12-28 00:20:00,36.5,9.4,30.00,North,0,0.0,0.0,32,0.00,CLR,OVC,0.00,WeatherDisplay:10.37,2013-12-28 06:20:00,
2013-12-28 00:25:00,36.7,9.5,30.00,North,0,0.0,0.0,32,0.00,CLR,OVC,0.00,WeatherDisplay:10.37,2013-12-28 06:25:00,
2013-12-28 00:30:00,36.7,9.5,30.00,North,0,0.0,0.0,32,0.00,CLR,OVC,0.00,WeatherDisplay:10.37,2013-12-28 06:30:00,
2013-12-28 00:35:00,36.7,9.5,30.00,North,0,0.0,0.0,32,0.00,CLR,OVC,0.00,WeatherDisplay:10.37,2013-12-28 06:35:00,
2013-12-28 00:40:00,36.9,9.7,30.00,North,0,0.0,0.0,32,0.00,CLR,OVC,0.00,WeatherDisplay:10.37,2013-12-28 06:40:00,
2013-12-28 00:45:00,36.9,9.7,30.00,North,0,0.0,0.0,32,0.00,CLR,OVC,0.00,WeatherDisplay:10.37,2013-12-28 06:45:00,
2013-12-28 00:50:00,36.9,9.7,30.00,North,0,0.0,0.0,32,0.00,CLR,OVC,0.00,WeatherDisplay:10.37,2013-12-28 06:50:00,
2013-12-28 00:55:00,36.9,9.7,30.00,North,0,0.0,0.0,32,0.00,CLR,OVC,0.00,WeatherDisplay:10.37,2013-12-28 06:55:00,
2013-12-28 01:00:00,36.7,9.5,30.00,North,0,0.0,0.0,32,0.00,CLR,OVC,0.00,WeatherDisplay:10.37,2013-12-28 07:00:00,
2013-12-28 01:05:00,36.7,9.5,30.00,North,0,0.0,0.0,32,0.00,CLR,OVC,0.00,WeatherDisplay:10.37,2013-12-28 07:05:00,
2013-12-28 01:10:00,36.5,9.4,30.00,North,0,0.0,0.0,32,0.00,CLR,OVC,0.00,WeatherDisplay:10.37,2013-12-28 07:10:00,
2013-12-28 01:15:00,36.3,9.9,30.00,North,0,0.0,0.0,33,0.00,CLR,OVC,0.00,WeatherDisplay:10.37,2013-12-28 07:15:00,
2013-12-28 01:20:00,36.1,9.8,30.00,North,0,0.0,0.0,33,0.00,CLR,OVC,0.00,WeatherDisplay:10.37,2013-12-28 07:20:00,
2013-12-28 01:25:00,36.1,9.8,30.00,North,0,0.0,0.0,33,0.00,CLR,OVC,0.00,WeatherDisplay:10.37,2013-12-28 07:25:00,
2013-12-28 01:30:00,36.0,9.6,30.00,North,0,0.0,0.0,33,0.00,CLR,OVC,0.00,WeatherDisplay:10.37,2013-12-28 07:30:00,
2013-12-28 01:35:00,35.8,9.4,30.00,North,0,0.0,0.0,33,0.00,CLR,OVC,0.00,WeatherDisplay:10.37,2013-12-28 07:35:00,
2013-12-28 01:40:00,35.8,10.1,30.00,North,0,0.0,0.0,34,0.00,CLR,OVC,0.00,WeatherDisplay:10.37,2013-12-28 07:40:00,
2013-12-28 01:45:00,35.8,10.1,30.00,North,0,0.0,0.0,34,0.00,CLR,OVC,0.00,WeatherDisplay:10.37,2013-12-28 07:45:00,
2013-12-28 01:50:00,35.8,10.1,30.00,North,0,0.0,0.0,34,0.00,CLR,OVC,0.00,WeatherDisplay:10.37,2013-12-28 07:50:00,
2013-12-28 01:55:00,35.8,10.1,30.00,North,0,0.0,0.0,34,0.00,CLR,OVC,0.00,WeatherDisplay:10.37,2013-12-28 07:55:00,
2013-12-28 02:00:00,36.0,10.9,30.00,North,0,0.0,0.0,35,0.00,CLR,OVC,0.00,WeatherDisplay:10.37,2013-12-28 08:00:00,
2013-12-28 02:05:00,35.8,10.8,30.00,North,0,0.0,0.0,35,0.00,CLR,OVC,0.00,WeatherDisplay:10.37,2013-12-28 08:05:00,
2013-12-28 02:10:00,35.8,10.8,30.00,North,0,0.0,0.0,35,0.00,CLR,OVC,0.00,WeatherDisplay:10.37,2013-12-28 08:10:00,
2013-12-28 02:15:00,35.6,11.2,30.00,North,0,0.0,0.0,36,0.00,CLR,OVC,0.00,WeatherDisplay:10.37,2013-12-28 08:15:00,
2013-12-28 02:20:00,35.6,11.2,30.00,North,0,0.0,0.0,36,0.00,CLR,OVC,0.00,WeatherDisplay:10.37,2013-12-28 08:20:00,
2013-12-28 02:25:00,35.6,11.2,30.00,North,0,0.0,0.0,36,0.00,CLR,OVC,0.00,WeatherDisplay:10.37,2013-12-28 08:25:00,
2013-12-28 02:30:00,35.4,11.7,30.00,North,0,0.0,0.0,37,0.00,CLR,OVC,0.00,WeatherDisplay:10.37,2013-12-28 08:30:00,
2013-12-28 02:35:00,35.4,11.7,30.00,North,0,0.0,0.0,37,0.00,CLR,OVC,0.00,WeatherDisplay:10.37,2013-12-28 08:35:00,
2013-12-28 02:40:00,35.2,11.5,30.00,North,0,0.0,0.0,37,0.00,CLR,OVC,0.00,WeatherDisplay:10.37,2013-12-28 08:40:00,
2013-12-28 02:45:00,35.2,11.5,30.00,North,0,0.0,0.0,37,0.00,CLR,OVC,0.00,WeatherDisplay:10.37,2013-12-28 08:45:00,
2013-12-28 02:50:00,35.4,12.3,30.00,North,0,0.0,0.0,38,0.00,CLR,OVC,0.00,WeatherDisplay:10.37,2013-12-28 08:50:00,
2013-12-28 02:55:00,35.4,12.3,30.00,North,0,0.0,0.0,38,0.00,CLR,OVC,0.00,WeatherDisplay:10.37,2013-12-28 08:55:00,
2013-12-28 03:00:00,35.4,12.3,30.00,North,0,0.0,0.0,38,0.00,CLR,OVC,0.00,WeatherDisplay:10.37,2013-12-28 09:00:00,
2013-12-28 03:05:00,35.1,12.0,30.00,North,0,0.0,0.0,38,0.00,CLR,OVC,0.00,WeatherDisplay:10.37,2013-12-28 09:05:00,
2013-12-28 03:10:00,34.9,11.8,30.00,North,0,0.0,0.0,38,0.00,CLR,OVC,0.00,WeatherDisplay:10.37,2013-12-28 09:10:00,
2013-12-28 03:15:00,34.5,11.5,30.00,North,0,0.0,0.0,38,0.00,CLR,OVC,0.00,WeatherDisplay:10.37,2013-12-28 09:15:00,
2013-12-28 03:20:00,34.5,12.1,29.97,North,0,0.0,0.0,39,0.00,CLR,OVC,0.00,WeatherDisplay:10.37,2013-12-28 09:20:00,
2013-12-28 03:25:00,34.3,11.9,29.97,North,0,0.0,0.0,39,0.00,CLR,OVC,0.00,WeatherDisplay:10.37,2013-12-28 09:25:00,
2013-12-28 03:30:00,34.3,11.9,29.97,North,0,0.0,0.0,39,0.00,CLR,OVC,0.00,WeatherDisplay:10.37,2013-12-28 09:30:00,
2013-12-28 03:35:00,34.0,11.6,29.97,North,0,0.0,0.0,39,0.00,CLR,OVC,0.00,WeatherDisplay:10.37,2013-12-28 09:35:00,
2013-12-28 03:40:00,34.0,12.2,29.97,North,0,0.0,0.0,40,0.00,CLR,OVC,0.00,WeatherDisplay:10.37,2013-12-28 09:40:00,
2013-12-28 03:45:00,33.8,12.0,29.97,North,0,0.0,0.0,40,0.00,CLR,OVC,0.00,WeatherDisplay:10.37,2013-12-28 09:45:00,
2013-12-28 03:50:00,33.8,12.0,29.97,North,0,0.0,0.0,40,0.00,CLR,OVC,0.00,WeatherDisplay:10.37,2013-12-28 09:50:00,
2013-12-28 03:55:00,33.8,12.0,29.97,North,0,0.0,0.0,40,0.00,CLR,OVC,0.00,WeatherDisplay:10.37,2013-12-28 09:55:00,
2013-12-28 04:00:00,34.0,12.2,29.97,North,0,0.0,0.0,40,0.00,CLR,OVC,0.00,WeatherDisplay:10.37,2013-12-28 10:00:00,
2013-12-28 04:05:00,34.2,12.3,29.97,North,0,0.0,0.0,40,0.00,CLR,OVC,0.00,WeatherDisplay:10.37,2013-12-28 10:05:00,
2013-12-28 04:10:00,34.3,12.5,29.97,North,0,0.0,0.0,40,0.00,CLR,OVC,0.00,WeatherDisplay:10.37,2013-12-28 10:10:00,
2013-12-28 04:16:00,34.3,12.5,29.97,North,0,0.0,0.0,40,0.00,CLR,OVC,0.00,WeatherDisplay:10.37,2013-12-28 10:16:00,
2013-12-28 04:21:00,34.2,12.3,29.97,North,0,0.0,0.0,40,0.00,CLR,OVC,0.00,WeatherDisplay:10.37,2013-12-28 10:21:00,
2013-12-28 04:26:00,34.2,12.3,29.97,North,0,0.0,0.0,40,0.00,CLR,OVC,0.00,WeatherDisplay:10.37,2013-12-28 10:26:00,
2013-12-28 04:31:00,34.2,12.3,29.97,North,0,0.0,0.0,40,0.00,CLR,OVC,0.00,WeatherDisplay:10.37,2013-12-28 10:31:00,
2013-12-28 04:36:00,34.3,12.5,29.97,North,0,0.0,0.0,40,0.00,CLR,OVC,0.00,WeatherDisplay:10.37,2013-12-28 10:36:00,
2013-12-28 04:41:00,34.3,12.5,29.97,North,0,0.0,0.0,40,0.00,CLR,OVC,0.00,WeatherDisplay:10.37,2013-12-28 10:41:00,
2013-12-28 04:46:00,34.7,12.8,29.97,North,0,0.0,0.0,40,0.00,CLR,OVC,0.00,WeatherDisplay:10.37,2013-12-28 10:46:00,
2013-12-28 04:51:00,34.7,12.8,29.97,North,0,0.0,0.0,40,0.00,CLR,OVC,0.00,WeatherDisplay:10.37,2013-12-28 10:51:00,
2013-12-28 04:56:00,34.7,12.8,29.97,North,0,0.0,0.0,40,0.00,CLR,OVC,0.00,WeatherDisplay:10.37,2013-12-28 10:56:00,
2013-12-28 05:01:00,34.7,12.8,29.97,North,0,0.0,0.0,40,0.00,CLR,OVC,0.00,WeatherDisplay:10.37,2013-12-28 11:01:00,
2013-12-28 05:03:00,34.9,13.0,29.97,North,0,0.0,0.0,40,0.00,CLR,OVC,0.00,WeatherDisplay:10.37,2013-12-28 11:03:00,
2013-12-28 05:08:00,34.9,13.0,29.97,North,0,0.0,0.0,40,0.00,CLR,OVC,0.00,WeatherDisplay:10.37,2013-12-28 11:08:00,
2013-12-28 05:13:00,34.9,13.0,29.97,North,0,0.0,0.0,40,0.00,CLR,OVC,0.00,WeatherDisplay:10.37,2013-12-28 11:13:00,
2013-12-28 05:18:00,35.1,13.1,29.97,North,0,0.0,0.0,40,0.00,CLR,OVC,0.00,WeatherDisplay:10.37,2013-12-28 11:18:00,
2013-12-28 05:23:00,35.1,13.1,29.97,North,0,0.0,0.0,40,0.00,CLR,OVC,0.00,WeatherDisplay:10.37,2013-12-28 11:23:00,
2013-12-28 05:28:00,35.1,13.1,29.97,North,0,0.0,0.0,40,0.00,CLR,OVC,0.00,WeatherDisplay:10.37,2013-12-28 11:28:00,
2013-12-28 05:33:00,35.1,13.1,29.97,North,0,0.0,0.0,40,0.00,CLR,OVC,0.00,WeatherDisplay:10.37,2013-12-28 11:33:00,
2013-12-28 05:38:00,35.1,13.1,29.97,North,0,0.0,0.0,40,0.00,CLR,OVC,0.00,WeatherDisplay:10.37,2013-12-28 11:38:00,
2013-12-28 05:43:00,35.1,13.1,29.97,North,0,0.0,0.0,40,0.00,CLR,OVC,0.00,WeatherDisplay:10.37,2013-12-28 11:43:00,
2013-12-28 05:48:00,35.1,13.1,29.97,North,0,0.0,0.0,40,0.00,CLR,OVC,0.00,WeatherDisplay:10.37,2013-12-28 11:48:00,
2013-12-28 05:53:00,34.9,13.0,29.97,North,0,0.0,0.0,40,0.00,CLR,OVC,0.00,WeatherDisplay:10.37,2013-12-28 11:53:00,
2013-12-28 05:58:00,34.7,12.8,29.97,North,0,0.0,0.0,40,0.00,CLR,OVC,0.00,WeatherDisplay:10.37,2013-12-28 11:58:00,
2013-12-28 06:03:00,34.7,12.8,29.97,North,0,0.0,0.0,40,0.00,CLR,OVC,0.00,WeatherDisplay:10.37,2013-12-28 12:03:00,
2013-12-28 06:08:00,34.7,12.8,29.97,North,0,0.0,0.0,40,0.00,CLR,OVC,0.00,WeatherDisplay:10.37,2013-12-28 12:08:00,
2013-12-28 06:13:00,34.7,12.8,29.97,North,0,0.0,0.0,40,0.00,CLR,OVC,0.00,WeatherDisplay:10.37,2013-12-28 12:13:00,
2013-12-28 06:18:00,34.7,12.8,29.97,North,0,0.0,0.0,40,0.00,CLR,OVC,0.00,WeatherDisplay:10.37,2013-12-28 12:18:00,
2013-12-28 06:23:00,34.9,13.0,29.97,North,0,0.0,0.0,40,0.00,CLR,OVC,0.00,WeatherDisplay:10.37,2013-12-28 12:23:00,
2013-12-28 06:28:00,34.9,13.0,29.97,North,0,0.0,0.0,40,0.00,CLR,OVC,0.00,WeatherDisplay:10.37,2013-12-28 12:28:00,
2013-12-28 06:33:00,35.1,13.1,29.97,North,0,0.0,0.0,40,0.00,CLR,OVC,0.00,WeatherDisplay:10.37,2013-12-28 12:33:00,
2013-12-28 06:38:00,34.9,13.0,29.97,North,0,0.0,0.0,40,0.00,CLR,OVC,0.00,WeatherDisplay:10.37,2013-12-28 12:38:00,
2013-12-28 06:43:00,34.9,13.0,29.97,North,0,0.0,0.0,40,0.00,CLR,OVC,0.00,WeatherDisplay:10.37,2013-12-28 12:43:00,
2013-12-28 06:48:00,34.9,13.0,29.97,North,0,0.0,0.0,40,0.00,CLR,OVC,0.00,WeatherDisplay:10.37,2013-12-28 12:48:00,
2013-12-28 06:53:00,34.7,12.8,29.97,North,0,0.0,0.0,40,0.00,CLR,OVC,0.00,WeatherDisplay:10.37,2013-12-28 12:53:00,
2013-12-28 06:58:00,34.5,12.6,29.97,North,0,0.0,0.0,40,0.00,CLR,OVC,0.00,WeatherDisplay:10.37,2013-12-28 12:58:00,
2013-12-28 07:03:00,34.5,12.6,29.97,North,0,0.0,0.0,40,0.00,CLR,OVC,0.00,WeatherDisplay:10.37,2013-12-28 13:03:00,
2013-12-28 07:08:00,34.5,12.1,29.97,North,0,0.0,0.0,39,0.00,CLR,OVC,0.00,WeatherDisplay:10.37,2013-12-28 13:08:00,
2013-12-28 07:13:00,34.5,12.1,29.97,North,0,0.0,0.0,39,0.00,CLR,OVC,0.00,WeatherDisplay:10.37,2013-12-28 13:13:00,
2013-12-28 07:18:00,34.3,11.9,29.97,North,0,0.0,0.0,39,0.00,CLR,OVC,0.00,WeatherDisplay:10.37,2013-12-28 13:18:00,
2013-12-28 07:23:00,34.3,11.9,29.97,North,0,0.0,0.0,39,0.00,CLR,OVC,0.00,WeatherDisplay:10.37,2013-12-28 13:23:00,
2013-12-28 07:28:00,34.3,11.9,29.97,North,0,0.0,0.0,39,0.00,CLR,OVC,0.00,WeatherDisplay:10.37,2013-12-28 13:28:00,
2013-12-28 07:33:00,34.3,11.9,29.97,North,0,0.0,0.0,39,0.00,CLR,OVC,0.00,WeatherDisplay:10.37,2013-12-28 13:33:00,
2013-12-28 07:38:00,34.3,11.9,29.97,North,0,0.0,0.0,39,0.00,CLR,OVC,0.00,WeatherDisplay:10.37,2013-12-28 13:38:00,
2013-12-28 07:43:00,34.3,11.9,29.97,North,0,0.0,0.0,39,0.00,CLR,OVC,0.00,WeatherDisplay:10.37,2013-12-28 13:43:00,
2013-12-28 07:48:00,34.3,11.9,29.97,North,0,0.0,0.0,39,0.00,CLR,OVC,0.00,WeatherDisplay:10.37,2013-12-28 13:48:00,
2013-12-28 07:53:00,34.5,12.1,29.97,North,0,0.0,0.0,39,0.00,CLR,OVC,0.00,WeatherDisplay:10.37,2013-12-28 13:53:00,
2013-12-28 07:58:00,34.7,12.2,29.97,North,0,0.0,0.0,39,0.00,CLR,OVC,0.00,WeatherDisplay:10.37,2013-12-28 13:58:00,
2013-12-28 08:03:00,34.9,12.4,29.97,North,0,0.0,0.0,39,0.00,CLR,OVC,0.00,WeatherDisplay:10.37,2013-12-28 14:03:00,
2013-12-28 08:08:00,35.1,12.6,29.97,North,0,0.0,0.0,39,0.00,CLR,OVC,0.00,WeatherDisplay:10.37,2013-12-28 14:08:00,
2013-12-28 08:13:00,35.1,12.6,29.97,North,0,0.0,0.0,39,0.00,CLR,OVC,0.00,WeatherDisplay:10.37,2013-12-28 14:13:00,
2013-12-28 08:18:00,35.4,12.3,29.97,North,0,0.0,0.0,38,0.00,CLR,OVC,0.00,WeatherDisplay:10.37,2013-12-28 14:18:00,
2013-12-28 08:23:00,35.6,12.5,29.97,North,0,0.0,0.0,38,0.00,CLR,OVC,0.00,WeatherDisplay:10.37,2013-12-28 14:23:00,
2013-12-28 08:28:00,35.6,11.9,29.97,North,0,0.0,0.0,37,0.00,CLR,OVC,0.00,WeatherDisplay:10.37,2013-12-28 14:28:00,
2013-12-28 08:33:00,36.0,12.2,29.97,North,0,0.0,0.0,37,0.00,CLR,OVC,0.00,WeatherDisplay:10.37,2013-12-28 14:33:00,
2013-12-28 08:38:00,36.1,12.3,29.97,North,0,0.0,0.0,37,0.00,CLR,OVC,0.00,WeatherDisplay:10.37,2013-12-28 14:38:00,
2013-12-28 08:43:00,36.5,12.0,29.97,North,0,0.0,0.0,36,0.00,CLR,OVC,0.00,WeatherDisplay:10.37,2013-12-28 14:43:00,
2013-12-28 08:48:00,36.7,12.2,29.97,North,0,0.0,0.0,36,0.00,CLR,OVC,0.00,WeatherDisplay:10.37,2013-12-28 14:48:00,
2013-12-28 08:53:00,36.9,11.7,29.97,North,0,0.0,0.0,35,0.00,CLR,OVC,0.00,WeatherDisplay:10.37,2013-12-28 14:53:00,
2013-12-28 08:58:00,37.0,11.2,29.97,North,0,0.0,0.0,34,0.00,CLR,OVC,0.00,WeatherDisplay:10.37,2013-12-28 14:58:00,
2013-12-28 09:03:00,37.0,11.2,29.97,North,0,0.0,0.0,34,0.00,CLR,OVC,0.00,WeatherDisplay:10.37,2013-12-28 15:03:00,
2013-12-28 09:08:00,37.4,10.9,29.97,North,0,0.0,0.0,33,0.00,CLR,OVC,0.00,WeatherDisplay:10.37,2013-12-28 15:08:00,
2013-12-28 09:13:00,37.6,11.0,29.97,North,0,0.0,0.0,33,0.00,CLR,OVC,0.00,WeatherDisplay:10.37,2013-12-28 15:13:00,
2013-12-28 09:18:00,37.9,10.7,29.97,North,0,0.0,0.0,32,0.00,CLR,OVC,0.00,WeatherDisplay:10.37,2013-12-28 15:18:00,
2013-12-28 09:23:00,38.1,10.1,29.97,North,0,0.0,0.0,31,0.00,CLR,OVC,0.00,WeatherDisplay:10.37,2013-12-28 15:23:00,
2013-12-28 09:28:00,38.5,10.4,29.97,North,0,0.0,0.0,31,0.00,CLR,OVC,0.00,WeatherDisplay:10.37,2013-12-28 15:28:00,
2013-12-28 09:33:00,38.7,9.8,29.97,North,0,0.0,0.0,30,0.00,CLR,OVC,0.00,WeatherDisplay:10.37,2013-12-28 15:33:00,
2013-12-28 09:38:00,38.8,10.0,29.97,North,0,0.0,0.0,30,0.00,CLR,OVC,0.00,WeatherDisplay:10.37,2013-12-28 15:38:00,
2013-12-28 09:43:00,39.2,9.6,29.97,North,0,0.0,0.0,29,0.00,CLR,OVC,0.00,WeatherDisplay:10.37,2013-12-28 15:43:00,
2013-12-28 09:48:00,39.4,9.7,29.97,North,0,0.0,0.0,29,0.00,CLR,OVC,0.00,WeatherDisplay:10.37,2013-12-28 15:48:00,
2013-12-28 09:53:00,39.7,10.0,29.97,North,0,0.0,0.0,29,0.00,CLR,OVC,0.00,WeatherDisplay:10.37,2013-12-28 15:53:00,
2013-12-28 09:58:00,39.9,9.4,29.97,North,0,0.0,0.0,28,0.00,CLR,OVC,0.00,WeatherDisplay:10.37,2013-12-28 15:58:00,
2013-12-28 10:03:00,40.5,8.2,29.97,North,0,0.0,0.0,26,0.00,CLR,OVC,0.00,WeatherDisplay:10.37,2013-12-28 16:03:00,
2013-12-28 10:08:00,40.6,5.7,29.97,North,0,0.0,0.0,23,0.00,CLR,OVC,0.00,WeatherDisplay:10.37,2013-12-28 16:08:00,
2013-12-28 10:13:00,41.0,6.0,29.97,North,0,0.0,0.0,23,0.00,CLR,OVC,0.00,WeatherDisplay:10.37,2013-12-28 16:13:00,
2013-12-28 10:18:00,41.0,4.0,29.97,North,0,0.0,0.0,21,0.00,CLR,OVC,0.00,WeatherDisplay:10.37,2013-12-28 16:18:00,
2013-12-28 10:23:00,41.2,4.1,29.97,North,0,0.0,0.0,21,0.00,CLR,OVC,0.00,WeatherDisplay:10.37,2013-12-28 16:23:00,
2013-12-28 10:28:00,41.4,4.3,29.97,North,0,0.0,0.0,21,0.00,CLR,OVC,0.00,WeatherDisplay:10.37,2013-12-28 16:28:00,
2013-12-28 10:33:00,41.5,1.1,29.97,North,0,0.0,0.0,18,0.00,CLR,OVC,0.00,WeatherDisplay:10.37,2013-12-28 16:33:00,
2013-12-28 10:38:00,41.7,1.2,29.97,North,0,0.0,0.0,18,0.00,CLR,OVC,0.00,WeatherDisplay:10.37,2013-12-28 16:38:00,
2013-12-28 10:43:00,42.1,1.5,29.97,North,0,0.0,0.0,18,0.00,CLR,OVC,0.00,WeatherDisplay:10.37,2013-12-28 16:43:00,
2013-12-28 10:48:00,42.1,1.5,29.94,North,0,0.0,0.0,18,0.00,CLR,OVC,0.00,WeatherDisplay:10.37,2013-12-28 16:48:00,
2013-12-28 10:53:00,42.3,1.7,29.94,North,0,0.0,0.0,18,0.00,CLR,OVC,0.00,WeatherDisplay:10.37,2013-12-28 16:53:00,
2013-12-28 10:58:00,42.6,2.0,29.94,North,0,0.0,0.0,18,0.00,CLR,OVC,0.00,WeatherDisplay:10.37,2013-12-28 16:58:00,
2013-12-28 11:03:00,42.8,-1.8,29.94,North,0,0.0,0.0,15,0.00,CLR,OVC,0.00,WeatherDisplay:10.37,2013-12-28 17:03:00,
2013-12-28 11:08:00,43.0,-1.6,29.94,North,0,0.0,0.0,15,0.00,CLR,OVC,0.00,WeatherDisplay:10.37,2013-12-28 17:08:00,
2013-12-28 11:13:00,43.2,-1.5,29.94,North,0,0.0,0.0,15,0.00,CLR,OVC,0.00,WeatherDisplay:10.37,2013-12-28 17:13:00,
2013-12-28 11:18:00,43.3,-1.3,29.94,North,0,0.0,0.0,15,0.00,CLR,OVC,0.00,WeatherDisplay:10.37,2013-12-28 17:18:00,
2013-12-28 11:23:00,43.5,-1.2,29.94,North,0,0.0,0.0,15,0.00,CLR,OVC,0.00,WeatherDisplay:10.37,2013-12-28 17:23:00,
2013-12-28 11:28:00,43.5,-1.2,29.94,North,0,0.0,0.0,15,0.00,CLR,OVC,0.00,WeatherDisplay:10.37,2013-12-28 17:28:00,
2013-12-28 11:33:00,43.7,-1.0,29.91,North,0,0.0,0.0,15,0.00,CLR,OVC,0.00,WeatherDisplay:10.37,2013-12-28 17:33:00,
2013-12-28 11:38:00,43.7,-1.0,29.91,North,0,0.0,0.0,15,0.00,CLR,OVC,0.00,WeatherDisplay:10.37,2013-12-28 17:38:00,
2013-12-28 11:43:00,43.9,-0.9,29.91,North,0,0.0,0.0,15,0.00,CLR,OVC,0.00,WeatherDisplay:10.37,2013-12-28 17:43:00,
2013-12-28 11:48:00,44.1,-0.7,29.91,North,0,0.0,0.0,15,0.00,CLR,OVC,0.00,WeatherDisplay:10.37,2013-12-28 17:48:00,
2013-12-28 11:53:00,44.1,-0.7,29.91,North,0,0.0,0.0,15,0.00,CLR,OVC,0.00,WeatherDisplay:10.37,2013-12-28 17:53:00,
2013-12-28 11:58:00,44.2,-0.6,29.91,North,0,0.0,0.0,15,0.00,CLR,OVC,0.00,WeatherDisplay:10.37,2013-12-28 17:58:00,
2013-12-28 12:03:00,44.4,-0.4,29.91,North,0,0.0,0.0,15,0.00,CLR,OVC,0.00,WeatherDisplay:10.37,2013-12-28 18:03:00,
2013-12-28 12:08:00,44.4,-0.4,29.91,North,0,0.0,0.0,15,0.00,CLR,OVC,0.00,WeatherDisplay:10.37,2013-12-28 18:08:00,
2013-12-28 12:13:00,44.6,-0.3,29.91,North,0,0.0,0.0,15,0.00,CLR,OVC,0.00,WeatherDisplay:10.37,2013-12-28 18:13:00,
2013-12-28 12:18:00,44.8,-0.2,29.91,North,0,0.0,0.0,15,0.00,CLR,OVC,0.00,WeatherDisplay:10.37,2013-12-28 18:18:00,
2013-12-28 12:23:00,45.1,0.1,29.91,North,0,0.0,0.0,15,0.00,CLR,OVC,0.00,WeatherDisplay:10.37,2013-12-28 18:23:00,
2013-12-28 12:28:00,45.1,0.1,29.91,North,0,0.0,0.0,15,0.00,CLR,OVC,0.00,WeatherDisplay:10.37,2013-12-28 18:28:00,
2013-12-28 12:33:00,45.3,0.3,29.88,North,0,0.0,0.0,15,0.00,CLR,OVC,0.00,WeatherDisplay:10.37,2013-12-28 18:33:00,
2013-12-28 12:38:00,45.5,0.4,29.88,North,0,0.0,0.0,15,0.00,CLR,OVC,0.00,WeatherDisplay:10.37,2013-12-28 18:38:00,
2013-12-28 12:43:00,45.5,0.4,29.88,North,0,0.0,0.0,15,0.00,CLR,OVC,0.00,WeatherDisplay:10.37,2013-12-28 18:43:00,
2013-12-28 12:48:00,45.9,0.7,29.88,North,0,0.0,0.0,15,0.00,CLR,OVC,0.00,WeatherDisplay:10.37,2013-12-28 18:48:00,
2013-12-28 12:53:00,45.9,0.7,29.88,North,0,0.0,0.0,15,0.00,CLR,OVC,0.00,WeatherDisplay:10.37,2013-12-28 18:53:00,
2013-12-28 12:58:00,46.0,0.9,29.88,North,0,0.0,0.0,15,0.00,CLR,OVC,0.00,WeatherDisplay:10.37,2013-12-28 18:58:00,
2013-12-28 13:03:00,46.0,0.9,29.88,North,0,0.0,0.0,15,0.00,CLR,OVC,0.00,WeatherDisplay:10.37,2013-12-28 19:03:00,
2013-12-28 13:08:00,46.2,1.0,29.88,North,0,0.0,0.0,15,0.00,CLR,OVC,0.00,WeatherDisplay:10.37,2013-12-28 19:08:00,
2013-12-28 13:13:00,46.2,1.0,29.88,North,0,0.0,0.0,15,0.00,CLR,OVC,0.00,WeatherDisplay:10.37,2013-12-28 19:13:00,
2013-12-28 13:18:00,46.0,0.9,29.88,North,0,0.0,0.0,15,0.00,CLR,OVC,0.00,WeatherDisplay:10.37,2013-12-28 19:18:00,
2013-12-28 13:23:00,46.0,0.9,29.88,North,0,0.0,0.0,15,0.00,CLR,OVC,0.00,WeatherDisplay:10.37,2013-12-28 19:23:00,
2013-12-28 13:28:00,46.0,0.9,29.88,North,0,0.0,0.0,15,0.00,CLR,OVC,0.00,WeatherDisplay:10.37,2013-12-28 19:28:00,
2013-12-28 13:33:00,45.9,0.7,29.88,North,0,0.0,0.0,15,0.04,RA,OVC,0.04,WeatherDisplay:10.37,2013-12-28 19:33:00,
2013-12-28 13:38:00,45.9,0.7,29.88,North,0,0.0,0.0,15,0.04,RA,OVC,0.04,WeatherDisplay:10.37,2013-12-28 19:38:00,
2013-12-28 13:43:00,45.9,0.7,29.88,North,0,0.0,0.0,15,0.04,CLR,OVC,0.04,WeatherDisplay:10.37,2013-12-28 19:43:00,
2013-12-28 13:48:00,45.9,0.7,29.85,North,0,0.0,0.0,15,0.04,CLR,OVC,0.04,WeatherDisplay:10.37,2013-12-28 19:48:00,
2013-12-28 13:53:00,45.9,0.7,29.85,North,0,0.0,0.0,15,0.04,CLR,OVC,0.04,WeatherDisplay:10.37,2013-12-28 19:53:00,
2013-12-28 13:58:00,45.9,0.7,29.85,North,0,0.0,0.0,15,0.04,CLR,OVC,0.04,WeatherDisplay:10.37,2013-12-28 19:58:00,
2013-12-28 14:03:00,45.9,0.7,29.85,North,0,0.0,0.0,15,0.04,CLR,OVC,0.04,WeatherDisplay:10.37,2013-12-28 20:03:00,
2013-12-28 14:08:00,46.0,0.9,29.85,North,0,0.0,0.0,15,0.04,CLR,OVC,0.04,WeatherDisplay:10.37,2013-12-28 20:08:00,
2013-12-28 14:13:00,46.0,0.9,29.85,North,0,0.0,0.0,15,0.04,CLR,OVC,0.04,WeatherDisplay:10.37,2013-12-28 20:13:00,
2013-12-28 14:18:00,46.2,1.0,29.85,North,0,0.0,0.0,15,0.04,CLR,OVC,0.04,WeatherDisplay:10.37,2013-12-28 20:18:00,
2013-12-28 14:23:00,46.2,1.0,29.85,North,0,0.0,0.0,15,0.04,CLR,OVC,0.04,WeatherDisplay:10.37,2013-12-28 20:23:00,
2013-12-28 14:28:00,46.0,0.9,29.85,North,0,0.0,0.0,15,0.04,CLR,OVC,0.04,WeatherDisplay:10.37,2013-12-28 20:28:00,
2013-12-28 14:33:00,46.0,0.9,29.85,North,0,0.0,0.0,15,0.00,CLR,OVC,0.04,WeatherDisplay:10.37,2013-12-28 20:33:00,
2013-12-28 14:38:00,46.0,0.9,29.85,North,0,0.0,0.0,15,0.00,CLR,OVC,0.04,WeatherDisplay:10.37,2013-12-28 20:38:00,
2013-12-28 14:43:00,46.0,0.9,29.85,North,0,0.0,0.0,15,0.00,CLR,OVC,0.04,WeatherDisplay:10.37,2013-12-28 20:43:00,
2013-12-28 14:48:00,46.0,0.9,29.85,North,0,0.0,0.0,15,0.00,CLR,OVC,0.04,WeatherDisplay:10.37,2013-12-28 20:48:00,
2013-12-28 14:53:00,46.0,0.9,29.85,North,0,0.0,0.0,15,0.00,CLR,OVC,0.04,WeatherDisplay:10.37,2013-12-28 20:53:00,
2013-12-28 14:58:00,46.0,0.9,29.85,North,0,0.0,0.0,15,0.00,CLR,OVC,0.04,WeatherDisplay:10.37,2013-12-28 20:58:00,
2013-12-28 15:03:00,46.0,0.9,29.85,North,0,0.0,0.0,15,0.00,CLR,OVC,0.04,WeatherDisplay:10.37,2013-12-28 21:03:00,
2013-12-28 15:08:00,45.9,0.7,29.85,North,0,0.0,0.0,15,0.00,CLR,OVC,0.04,WeatherDisplay:10.37,2013-12-28 21:08:00,
2013-12-28 15:13:00,45.9,0.7,29.85,North,0,0.0,0.0,15,0.00,CLR,OVC,0.04,WeatherDisplay:10.37,2013-12-28 21:13:00,
2013-12-28 15:18:00,45.9,0.7,29.85,North,0,0.0,0.0,15,0.00,CLR,OVC,0.04,WeatherDisplay:10.37,2013-12-28 21:18:00,
2013-12-28 15:23:00,45.7,0.6,29.85,North,0,0.0,0.0,15,0.00,CLR,OVC,0.04,WeatherDisplay:10.37,2013-12-28 21:23:00,
2013-12-28 15:28:00,45.5,0.4,29.85,North,0,0.0,0.0,15,0.00,CLR,OVC,0.04,WeatherDisplay:10.37,2013-12-28 21:28:00,
2013-12-28 15:33:00,45.3,0.3,29.85,North,0,0.0,0.0,15,0.00,CLR,OVC,0.04,WeatherDisplay:10.37,2013-12-28 21:33:00,
2013-12-28 15:38:00,45.0,0.0,29.85,North,0,0.0,0.0,15,0.00,CLR,OVC,0.04,WeatherDisplay:10.37,2013-12-28 21:38:00,
2013-12-28 15:43:00,44.8,-0.2,29.85,North,0,0.0,0.0,15,0.00,CLR,OVC,0.04,WeatherDisplay:10.37,2013-12-28 21:43:00,
2013-12-28 15:48:00,44.6,-0.3,29.85,North,0,0.0,0.0,15,0.00,CLR,OVC,0.04,WeatherDisplay:10.37,2013-12-28 21:48:00,
2013-12-28 15:53:00,44.6,-0.3,29.85,North,0,0.0,0.0,15,0.00,CLR,OVC,0.04,WeatherDisplay:10.37,2013-12-28 21:53:00,
2013-12-28 15:58:00,44.6,-0.3,29.85,North,0,0.0,0.0,15,0.00,CLR,OVC,0.04,WeatherDisplay:10.37,2013-12-28 21:58:00,
2013-12-28 16:03:00,44.4,-0.4,29.85,North,0,0.0,0.0,15,0.00,CLR,OVC,0.04,WeatherDisplay:10.37,2013-12-28 22:03:00,
2013-12-28 16:08:00,44.2,-0.6,29.85,North,0,0.0,0.0,15,0.00,CLR,OVC,0.04,WeatherDisplay:10.37,2013-12-28 22:08:00,
2013-12-28 16:13:00,44.1,-0.7,29.85,North,0,0.0,0.0,15,0.00,CLR,OVC,0.04,WeatherDisplay:10.37,2013-12-28 22:13:00,
2013-12-28 16:18:00,43.7,-1.0,29.85,North,0,0.0,0.0,15,0.00,CLR,OVC,0.04,WeatherDisplay:10.37,2013-12-28 22:18:00,
2013-12-28 16:23:00,43.5,-1.2,29.85,North,0,0.0,0.0,15,0.00,CLR,OVC,0.04,WeatherDisplay:10.37,2013-12-28 22:23:00,
2013-12-28 16:28:00,43.3,-1.3,29.85,North,0,0.0,0.0,15,0.00,CLR,OVC,0.04,WeatherDisplay:10.37,2013-12-28 22:28:00,
2013-12-28 16:33:00,43.3,-1.3,29.82,North,0,0.0,0.0,15,0.00,CLR,OVC,0.04,WeatherDisplay:10.37,2013-12-28 22:33:00,
2013-12-28 16:38:00,43.3,-1.3,29.82,North,0,0.0,0.0,15,0.00,CLR,OVC,0.04,WeatherDisplay:10.37,2013-12-28 22:38:00,
2013-12-28 16:43:00,43.0,-1.6,29.82,North,0,0.0,0.0,15,0.00,CLR,OVC,0.04,WeatherDisplay:10.37,2013-12-28 22:43:00,
2013-12-28 16:48:00,42.8,-1.8,29.82,North,0,0.0,0.0,15,0.00,CLR,OVC,0.04,WeatherDisplay:10.37,2013-12-28 22:48:00,
2013-12-28 16:53:00,42.4,-0.7,29.82,North,0,0.0,0.0,16,0.00,CLR,OVC,0.04,WeatherDisplay:10.37,2013-12-28 22:53:00,
2013-12-28 16:58:00,42.1,-1.0,29.82,North,0,0.0,0.0,16,0.00,CLR,OVC,0.04,WeatherDisplay:10.37,2013-12-28 22:58:00,
2013-12-28 17:03:00,41.7,-1.3,29.82,North,0,0.0,0.0,16,0.00,CLR,OVC,0.04,WeatherDisplay:10.37,2013-12-28 23:03:00,
2013-12-28 17:08:00,41.5,-1.4,29.82,North,0,0.0,0.0,16,0.00,CLR,OVC,0.04,WeatherDisplay:10.37,2013-12-28 23:08:00,
2013-12-28 17:13:00,41.4,-1.6,29.82,North,0,0.0,0.0,16,0.00,CLR,OVC,0.04,WeatherDisplay:10.37,2013-12-28 23:13:00,
2013-12-28 17:18:00,41.2,-1.7,29.82,North,0,0.0,0.0,16,0.00,CLR,OVC,0.04,WeatherDisplay:10.37,2013-12-28 23:18:00,
2013-12-28 17:23:00,41.2,0.8,29.82,North,0,0.0,0.0,18,0.00,CLR,OVC,0.04,WeatherDisplay:10.37,2013-12-28 23:23:00,
2013-12-28 17:28:00,41.2,0.8,29.82,North,0,0.0,0.0,18,0.00,CLR,OVC,0.04,WeatherDisplay:10.37,2013-12-28 23:28:00,
2013-12-28 17:33:00,41.2,0.8,29.82,North,0,0.0,0.0,18,0.00,CLR,OVC,0.04,WeatherDisplay:10.37,2013-12-28 23:33:00,
2013-12-28 17:38:00,41.2,0.8,29.82,North,0,0.0,0.0,18,0.00,CLR,OVC,0.04,WeatherDisplay:10.37,2013-12-28 23:38:00,
2013-12-28 17:43:00,41.2,0.8,29.82,North,0,0.0,0.0,18,0.00,CLR,OVC,0.04,WeatherDisplay:10.37,2013-12-28 23:43:00,
2013-12-28 17:48:00,41.2,0.8,29.82,North,0,0.0,0.0,18,0.00,CLR,OVC,0.04,WeatherDisplay:10.37,2013-12-28 23:48:00,
2013-12-28 17:53:00,41.2,0.8,29.82,North,0,0.0,0.0,18,0.00,CLR,OVC,0.04,WeatherDisplay:10.37,2013-12-28 23:53:00,
2013-12-28 17:58:00,41.5,1.1,29.82,North,0,0.0,0.0,18,0.00,CLR,OVC,0.04,WeatherDisplay:10.37,2013-12-28 23:58:00,
2013-12-28 18:03:00,41.4,0.9,29.82,North,0,0.0,0.0,18,0.00,CLR,OVC,0.04,WeatherDisplay:10.37,2013-12-29 00:03:00,
2013-12-28 18:08:00,41.4,0.9,29.82,North,0,0.0,0.0,18,0.00,CLR,OVC,0.04,WeatherDisplay:10.37,2013-12-29 00:08:00,
2013-12-28 18:13:00,41.4,0.9,29.82,North,0,0.0,0.0,18,0.00,CLR,OVC,0.04,WeatherDisplay:10.37,2013-12-29 00:13:00,
2013-12-28 18:18:00,41.2,0.8,29.82,North,0,0.0,0.0,18,0.00,CLR,OVC,0.04,WeatherDisplay:10.37,2013-12-29 00:18:00,
2013-12-28 18:23:00,41.2,0.8,29.82,North,0,0.0,0.0,18,0.00,CLR,OVC,0.04,WeatherDisplay:10.37,2013-12-29 00:23:00,
2013-12-28 18:28:00,41.2,0.8,29.82,North,0,0.0,0.0,18,0.00,CLR,OVC,0.04,WeatherDisplay:10.37,2013-12-29 00:28:00,
2013-12-28 18:33:00,41.2,0.8,29.82,North,0,0.0,0.0,18,0.00,CLR,OVC,0.04,WeatherDisplay:10.37,2013-12-29 00:33:00,
2013-12-28 18:38:00,41.4,0.9,29.82,North,0,0.0,0.0,18,0.00,CLR,OVC,0.04,WeatherDisplay:10.37,2013-12-29 00:38:00,
2013-12-28 18:43:00,41.5,1.1,29.82,North,0,0.0,0.0,18,0.00,CLR,OVC,0.04,WeatherDisplay:10.37,2013-12-29 00:43:00,
2013-12-28 18:48:00,41.9,1.4,29.79,North,0,0.0,0.0,18,0.00,CLR,OVC,0.04,WeatherDisplay:10.37,2013-12-29 00:48:00,
2013-12-28 18:53:00,42.1,1.5,29.79,North,0,0.0,0.0,18,0.00,CLR,OVC,0.04,WeatherDisplay:10.37,2013-12-29 00:53:00,
2013-12-28 18:58:00,42.1,1.5,29.79,North,0,0.0,0.0,18,0.00,CLR,OVC,0.04,WeatherDisplay:10.37,2013-12-29 00:58:00,
2013-12-28 19:03:00,42.1,1.5,29.79,North,0,0.0,0.0,18,0.00,CLR,OVC,0.04,WeatherDisplay:10.37,2013-12-29 01:03:00,
2013-12-28 19:08:00,42.1,-1.0,29.79,North,0,0.0,0.0,16,0.00,CLR,OVC,0.04,WeatherDisplay:10.37,2013-12-29 01:08:00,
2013-12-28 19:13:00,42.4,-0.7,29.79,North,0,0.0,0.0,16,0.00,CLR,OVC,0.04,WeatherDisplay:10.37,2013-12-29 01:13:00,
2013-12-28 19:18:00,42.4,-0.7,29.79,North,0,0.0,0.0,16,0.00,CLR,OVC,0.04,WeatherDisplay:10.37,2013-12-29 01:18:00,
2013-12-28 19:23:00,42.3,-0.8,29.79,North,0,0.0,0.0,16,0.00,CLR,OVC,0.04,WeatherDisplay:10.37,2013-12-29 01:23:00,
2013-12-28 19:28:00,42.4,-0.7,29.79,North,0,0.0,0.0,16,0.00,CLR,OVC,0.04,WeatherDisplay:10.37,2013-12-29 01:28:00,
2013-12-28 19:33:00,42.4,-0.7,29.79,North,0,0.0,0.0,16,0.00,CLR,OVC,0.04,WeatherDisplay:10.37,2013-12-29 01:33:00,
2013-12-28 19:38:00,42.3,-0.8,29.79,North,0,0.0,0.0,16,0.00,CLR,OVC,0.04,WeatherDisplay:10.37,2013-12-29 01:38:00,
2013-12-28 19:43:00,42.3,-0.8,29.79,North,0,0.0,0.0,16,0.00,CLR,OVC,0.04,WeatherDisplay:10.37,2013-12-29 01:43:00,
2013-12-28 19:48:00,42.3,-0.8,29.79,North,0,0.0,0.0,16,0.00,CLR,OVC,0.04,WeatherDisplay:10.37,2013-12-29 01:48:00,
2013-12-28 19:53:00,42.3,-0.8,29.79,North,0,0.0,0.0,16,0.00,CLR,OVC,0.04,WeatherDisplay:10.37,2013-12-29 01:53:00,
2013-12-28 19:58:00,42.3,-0.8,29.79,North,0,0.0,0.0,16,0.00,CLR,OVC,0.04,WeatherDisplay:10.37,2013-12-29 01:58:00,
2013-12-28 20:03:00,42.3,-0.8,29.79,North,0,0.0,0.0,16,0.00,CLR,OVC,0.04,WeatherDisplay:10.37,2013-12-29 02:03:00,
2013-12-28 20:08:00,42.1,-1.0,29.79,North,0,0.0,0.0,16,0.00,CLR,OVC,0.04,WeatherDisplay:10.37,2013-12-29 02:08:00,
2013-12-28 20:13:00,42.1,-1.0,29.79,North,0,0.0,0.0,16,0.00,CLR,OVC,0.04,WeatherDisplay:10.37,2013-12-29 02:13:00,
2013-12-28 20:18:00,42.1,-1.0,29.79,North,0,0.0,0.0,16,0.00,CLR,OVC,0.04,WeatherDisplay:10.37,2013-12-29 02:18:00,
2013-12-28 20:23:00,42.1,-1.0,29.79,North,0,0.0,0.0,16,0.00,CLR,OVC,0.04,WeatherDisplay:10.37,2013-12-29 02:23:00,
2013-12-28 20:28:00,41.9,-1.1,29.79,North,0,0.0,0.0,16,0.00,CLR,OVC,0.04,WeatherDisplay:10.37,2013-12-29 02:28:00,
2013-12-28 20:33:00,42.1,-1.0,29.79,North,0,0.0,0.0,16,0.00,CLR,OVC,0.04,WeatherDisplay:10.37,2013-12-29 02:33:00,
2013-12-28 20:38:00,42.3,-0.8,29.79,North,0,0.0,0.0,16,0.00,CLR,OVC,0.04,WeatherDisplay:10.37,2013-12-29 02:38:00,
2013-12-28 20:43:00,42.4,-0.7,29.79,North,0,0.0,0.0,16,0.00,CLR,OVC,0.04,WeatherDisplay:10.37,2013-12-29 02:43:00,
2013-12-28 20:48:00,42.4,-0.7,29.79,North,0,0.0,0.0,16,0.00,CLR,OVC,0.04,WeatherDisplay:10.37,2013-12-29 02:48:00,
2013-12-28 20:53:00,42.4,-0.7,29.79,North,0,0.0,0.0,16,0.00,CLR,OVC,0.04,WeatherDisplay:10.37,2013-12-29 02:53:00,
2013-12-28 20:58:00,42.4,-0.7,29.79,North,0,0.0,0.0,16,0.00,CLR,OVC,0.04,WeatherDisplay:10.37,2013-12-29 02:58:00,
2013-12-28 21:03:00,42.3,-0.8,29.79,North,0,0.0,0.0,16,0.00,CLR,OVC,0.04,WeatherDisplay:10.37,2013-12-29 03:03:00,
2013-12-28 21:08:00,42.3,-0.8,29.79,North,0,0.0,0.0,16,0.00,CLR,OVC,0.04,WeatherDisplay:10.37,2013-12-29 03:08:00,
2013-12-28 21:13:00,41.9,-1.1,29.79,North,0,0.0,0.0,16,0.00,CLR,OVC,0.04,WeatherDisplay:10.37,2013-12-29 03:13:00,
2013-12-28 21:18:00,41.7,-1.3,29.79,North,0,0.0,0.0,16,0.00,CLR,OVC,0.04,WeatherDisplay:10.37,2013-12-29 03:18:00,
2013-12-28 21:23:00,41.2,-6.1,29.79,North,0,0.0,0.0,13,0.00,CLR,OVC,0.04,WeatherDisplay:10.37,2013-12-29 03:23:00,
2013-12-28 21:28:00,40.8,-6.3,29.79,North,0,0.0,0.0,13,0.00,CLR,OVC,0.04,WeatherDisplay:10.37,2013-12-29 03:28:00,
2013-12-28 21:33:00,40.5,-2.3,29.79,North,0,0.0,0.0,16,0.00,CLR,OVC,0.04,WeatherDisplay:10.37,2013-12-29 03:33:00,
2013-12-28 21:38:00,40.5,-2.3,29.79,North,0,0.0,0.0,16,0.00,CLR,OVC,0.04,WeatherDisplay:10.37,2013-12-29 03:38:00,
2013-12-28 21:43:00,40.6,-2.2,29.79,North,0,0.0,0.0,16,0.00,CLR,OVC,0.04,WeatherDisplay:10.37,2013-12-29 03:43:00,
2013-12-28 21:48:00,40.6,-2.2,29.79,North,0,0.0,0.0,16,0.00,CLR,OVC,0.04,WeatherDisplay:10.37,2013-12-29 03:48:00,
2013-12-28 21:53:00,40.6,-2.2,29.79,North,0,0.0,0.0,16,0.00,CLR,OVC,0.04,WeatherDisplay:10.37,2013-12-29 03:53:00,
2013-12-28 21:58:00,40.6,-2.2,29.79,North,0,0.0,0.0,16,0.00,CLR,OVC,0.04,WeatherDisplay:10.37,2013-12-29 03:58:00,
2013-12-28 22:03:00,40.6,-2.2,29.79,North,0,0.0,0.0,16,0.00,CLR,OVC,0.04,WeatherDisplay:10.37,2013-12-29 04:03:00,
2013-12-28 22:08:00,40.5,-2.3,29.79,North,0,0.0,0.0,16,0.00,CLR,OVC,0.04,WeatherDisplay:10.37,2013-12-29 04:08:00,
2013-12-28 22:13:00,40.3,-2.4,29.79,North,0,0.0,0.0,16,0.00,CLR,OVC,0.04,WeatherDisplay:10.37,2013-12-29 04:13:00,
2013-12-28 22:18:00,40.3,-2.4,29.76,North,0,0.0,0.0,16,0.00,CLR,OVC,0.04,WeatherDisplay:10.37,2013-12-29 04:18:00,
2013-12-28 22:23:00,40.5,-2.3,29.76,North,0,0.0,0.0,16,0.00,CLR,OVC,0.04,WeatherDisplay:10.37,2013-12-29 04:23:00,
2013-12-28 22:28:00,40.5,-2.3,29.76,North,0,0.0,0.0,16,0.00,CLR,OVC,0.04,WeatherDisplay:10.37,2013-12-29 04:28:00,
2013-12-28 22:33:00,40.5,-2.3,29.76,North,0,0.0,0.0,16,0.00,CLR,OVC,0.04,WeatherDisplay:10.37,2013-12-29 04:33:00,
2013-12-28 22:38:00,40.3,-2.4,29.76,North,0,0.0,0.0,16,0.00,CLR,OVC,0.04,WeatherDisplay:10.37,2013-12-29 04:38:00,
2013-12-28 22:43:00,40.1,-2.6,29.76,North,0,0.0,0.0,16,0.00,CLR,OVC,0.04,WeatherDisplay:10.37,2013-12-29 04:43:00,
2013-12-28 22:48:00,40.1,-2.6,29.76,North,0,0.0,0.0,16,0.00,CLR,OVC,0.04,WeatherDisplay:10.37,2013-12-29 04:48:00,
2013-12-28 22:53:00,40.3,-2.4,29.76,North,0,0.0,0.0,16,0.00,CLR,OVC,0.04,WeatherDisplay:10.37,2013-12-29 04:53:00,
2013-12-28 22:58:00,40.5,-2.3,29.76,North,0,0.0,0.0,16,0.00,CLR,OVC,0.04,WeatherDisplay:10.37,2013-12-29 04:58:00,
2013-12-28 23:01:00,40.5,-2.3,29.76,North,0,0.0,0.0,16,0.00,CLR,OVC,0.04,WeatherDisplay:10.37,2013-12-29 05:01:00,
2013-12-28 23:02:00,40.5,-2.3,29.76,North,0,0.0,0.0,16,0.00,CLR,OVC,0.04,WeatherDisplay:10.37,2013-12-29 05:02:00,
2013-12-28 23:04:00,40.5,-2.3,29.76,North,0,0.0,0.0,16,0.00,CLR,OVC,0.04,WeatherDisplay:10.37,2013-12-29 05:04:00,
2013-12-28 23:09:00,40.5,-2.3,29.76,North,0,0.0,0.0,16,0.00,CLR,OVC,0.04,WeatherDisplay:10.37,2013-12-29 05:09:00,
2013-12-28 23:14:00,40.5,-2.3,29.76,North,0,0.0,0.0,16,0.00,CLR,OVC,0.04,WeatherDisplay:10.37,2013-12-29 05:14:00,
2013-12-28 23:19:00,40.5,-2.3,29.73,North,0,0.0,0.0,16,0.00,CLR,OVC,0.04,WeatherDisplay:10.37,2013-12-29 05:19:00,
2013-12-28 23:24:00,40.6,-2.2,29.73,North,0,0.0,0.0,16,0.00,CLR,OVC,0.04,WeatherDisplay:10.37,2013-12-29 05:24:00,
2013-12-28 23:29:00,40.5,-2.3,29.73,North,0,0.0,0.0,16,0.00,CLR,OVC,0.04,WeatherDisplay:10.37,2013-12-29 05:29:00,
2013-12-28 23:34:00,40.3,-2.4,29.73,North,0,0.0,0.0,16,0.00,CLR,OVC,0.04,WeatherDisplay:10.37,2013-12-29 05:34:00,
2013-12-28 23:39:00,40.3,-2.4,29.73,North,0,0.0,0.0,16,0.00,CLR,OVC,0.04,WeatherDisplay:10.37,2013-12-29 05:39:00,
2013-12-28 23:44:00,39.9,-2.7,29.73,North,0,0.0,0.0,16,0.00,CLR,OVC,0.04,WeatherDisplay:10.37,2013-12-29 05:44:00,
2013-12-28 23:49:00,39.9,-2.7,29.73,North,0,0.0,0.0,16,0.00,CLR,OVC,0.04,WeatherDisplay:10.37,2013-12-29 05:49:00,
2013-12-28 23:54:00,39.7,-2.9,29.73,North,0,0.0,0.0,16,0.00,CLR,OVC,0.04,WeatherDisplay:10.37,2013-12-29 05:54:00,
2013-12-28 23:59:00,39.7,-2.9,29.73,North,0,0.0,0.0,16,0.00,CLR,OVC,0.04,WeatherDisplay:10.37,2013-12-29 05:59:00,